sensor_id;sensor_type;location;lat;lon;timestamp;P1;durP1;ratioP1;P2;durP2;ratioP2
21886;SDS011;11108;49.988;8.182;2023-05-16T00:01:46;6.13;;;5.63;;
21886;SDS011;11108;49.988;8.182;2023-05-16T00:04:12;6.43;;;5.80;;
21886;SDS011;11108;49.988;8.182;2023-05-16T00:06:37;5.87;;;5.47;;
21886;SDS011;11108;49.988;8.182;2023-05-16T00:09:02;6.50;;;6.00;;
21886;SDS011;11108;49.988;8.182;2023-05-16T00:11:27;6.63;;;5.93;;
21886;SDS011;11108;49.988;8.182;2023-05-16T00:13:53;5.73;;;5.43;;
21886;SDS011;11108;49.988;8.182;2023-05-16T00:16:18;6.10;;;5.70;;
21886;SDS011;11108;49.988;8.182;2023-05-16T00:18:45;6.23;;;5.73;;
21886;SDS011;11108;49.988;8.182;2023-05-16T00:21:10;6.03;;;5.53;;
21886;SDS011;11108;49.988;8.182;2023-05-16T00:23:36;5.63;;;5.23;;
21886;SDS011;11108;49.988;8.182;2023-05-16T00:26:01;6.20;;;5.70;;
21886;SDS011;11108;49.988;8.182;2023-05-16T00:28:26;5.77;;;5.37;;
21886;SDS011;11108;49.988;8.182;2023-05-16T00:30:51;6.20;;;5.80;;
21886;SDS011;11108;49.988;8.182;2023-05-16T00:33:16;5.93;;;5.53;;
21886;SDS011;11108;49.988;8.182;2023-05-16T00:35:42;5.70;;;5.20;;
21886;SDS011;11108;49.988;8.182;2023-05-16T00:38:07;5.87;;;5.47;;
21886;SDS011;11108;49.988;8.182;2023-05-16T00:40:32;6.17;;;5.67;;
21886;SDS011;11108;49.988;8.182;2023-05-16T00:42:57;5.77;;;5.27;;
21886;SDS011;11108;49.988;8.182;2023-05-16T00:45:22;5.73;;;5.33;;
21886;SDS011;11108;49.988;8.182;2023-05-16T00:47:48;5.90;;;5.50;;
21886;SDS011;11108;49.988;8.182;2023-05-16T00:50:13;5.60;;;5.20;;
21886;SDS011;11108;49.988;8.182;2023-05-16T00:52:38;6.00;;;5.60;;
21886;SDS011;11108;49.988;8.182;2023-05-16T00:55:05;5.90;;;5.40;;
21886;SDS011;11108;49.988;8.182;2023-05-16T00:57:30;5.23;;;4.93;;
21886;SDS011;11108;49.988;8.182;2023-05-16T00:59:55;6.23;;;5.67;;
21886;SDS011;11108;49.988;8.182;2023-05-16T01:02:21;5.57;;;5.13;;
21886;SDS011;11108;49.988;8.182;2023-05-16T01:04:46;6.20;;;5.70;;
21886;SDS011;11108;49.988;8.182;2023-05-16T01:07:12;5.87;;;5.47;;
21886;SDS011;11108;49.988;8.182;2023-05-16T01:09:37;6.10;;;5.60;;
21886;SDS011;11108;49.988;8.182;2023-05-16T01:12:08;5.70;;;5.30;;
21886;SDS011;11108;49.988;8.182;2023-05-16T01:14:55;5.70;;;5.27;;
21886;SDS011;11108;49.988;8.182;2023-05-16T01:20:08;5.40;;;5.10;;
21886;SDS011;11108;49.988;8.182;2023-05-16T01:27:40;5.77;;;5.37;;
21886;SDS011;11108;49.988;8.182;2023-05-16T01:30:16;5.00;;;4.70;;
21886;SDS011;11108;49.988;8.182;2023-05-16T01:32:41;5.70;;;4.97;;
21886;SDS011;11108;49.988;8.182;2023-05-16T01:35:07;5.77;;;5.37;;
21886;SDS011;11108;49.988;8.182;2023-05-16T01:37:55;5.73;;;5.33;;
21886;SDS011;11108;49.988;8.182;2023-05-16T01:40:32;6.00;;;5.50;;
21886;SDS011;11108;49.988;8.182;2023-05-16T01:42:59;5.67;;;5.23;;
21886;SDS011;11108;49.988;8.182;2023-05-16T01:45:28;5.90;;;5.40;;
21886;SDS011;11108;49.988;8.182;2023-05-16T01:48:12;5.20;;;4.87;;
21886;SDS011;11108;49.988;8.182;2023-05-16T01:50:42;5.60;;;5.10;;
21886;SDS011;11108;49.988;8.182;2023-05-16T01:53:11;5.57;;;5.07;;
21886;SDS011;11108;49.988;8.182;2023-05-16T01:55:41;5.50;;;5.10;;
21886;SDS011;11108;49.988;8.182;2023-05-16T01:58:06;5.73;;;5.23;;
21886;SDS011;11108;49.988;8.182;2023-05-16T02:00:32;5.33;;;4.93;;
21886;SDS011;11108;49.988;8.182;2023-05-16T02:02:58;5.37;;;4.97;;
21886;SDS011;11108;49.988;8.182;2023-05-16T02:05:23;5.03;;;4.63;;
21886;SDS011;11108;49.988;8.182;2023-05-16T02:07:48;5.03;;;4.73;;
21886;SDS011;11108;49.988;8.182;2023-05-16T02:10:13;5.27;;;4.80;;
21886;SDS011;11108;49.988;8.182;2023-05-16T02:12:39;5.63;;;5.23;;
21886;SDS011;11108;49.988;8.182;2023-05-16T02:15:04;5.03;;;4.73;;
21886;SDS011;11108;49.988;8.182;2023-05-16T02:17:30;5.37;;;4.97;;
21886;SDS011;11108;49.988;8.182;2023-05-16T02:19:55;5.20;;;4.80;;
21886;SDS011;11108;49.988;8.182;2023-05-16T02:22:20;5.80;;;5.33;;
21886;SDS011;11108;49.988;8.182;2023-05-16T02:24:45;5.67;;;4.87;;
21886;SDS011;11108;49.988;8.182;2023-05-16T02:27:10;5.43;;;5.03;;
21886;SDS011;11108;49.988;8.182;2023-05-16T02:29:35;5.97;;;5.37;;
21886;SDS011;11108;49.988;8.182;2023-05-16T02:32:01;4.93;;;4.63;;
21886;SDS011;11108;49.988;8.182;2023-05-16T02:34:26;5.00;;;4.67;;
21886;SDS011;11108;49.988;8.182;2023-05-16T02:36:51;5.80;;;5.30;;
21886;SDS011;11108;49.988;8.182;2023-05-16T02:39:16;5.47;;;5.07;;
21886;SDS011;11108;49.988;8.182;2023-05-16T02:41:41;5.40;;;4.90;;
21886;SDS011;11108;49.988;8.182;2023-05-16T02:44:07;5.50;;;5.00;;
21886;SDS011;11108;49.988;8.182;2023-05-16T02:46:32;7.27;;;5.20;;
21886;SDS011;11108;49.988;8.182;2023-05-16T02:48:58;5.20;;;4.70;;
21886;SDS011;11108;49.988;8.182;2023-05-16T02:51:24;5.90;;;5.30;;
21886;SDS011;11108;49.988;8.182;2023-05-16T02:53:50;5.70;;;5.27;;
21886;SDS011;11108;49.988;8.182;2023-05-16T02:56:15;6.10;;;5.70;;
21886;SDS011;11108;49.988;8.182;2023-05-16T02:58:41;5.83;;;5.33;;
21886;SDS011;11108;49.988;8.182;2023-05-16T03:01:06;6.03;;;5.60;;
21886;SDS011;11108;49.988;8.182;2023-05-16T03:03:31;5.70;;;5.20;;
21886;SDS011;11108;49.988;8.182;2023-05-16T03:05:59;5.80;;;5.30;;
21886;SDS011;11108;49.988;8.182;2023-05-16T03:08:24;5.83;;;5.33;;
21886;SDS011;11108;49.988;8.182;2023-05-16T03:10:49;6.07;;;5.53;;
21886;SDS011;11108;49.988;8.182;2023-05-16T03:13:15;5.87;;;5.37;;
21886;SDS011;11108;49.988;8.182;2023-05-16T03:15:40;5.67;;;5.17;;
21886;SDS011;11108;49.988;8.182;2023-05-16T03:18:05;5.30;;;4.90;;
21886;SDS011;11108;49.988;8.182;2023-05-16T03:20:30;5.50;;;5.10;;
21886;SDS011;11108;49.988;8.182;2023-05-16T03:22:55;6.60;;;5.57;;
21886;SDS011;11108;49.988;8.182;2023-05-16T03:25:21;5.47;;;5.03;;
21886;SDS011;11108;49.988;8.182;2023-05-16T03:27:46;5.40;;;5.00;;
21886;SDS011;11108;49.988;8.182;2023-05-16T03:30:11;5.80;;;5.40;;
21886;SDS011;11108;49.988;8.182;2023-05-16T03:32:37;5.13;;;4.73;;
21886;SDS011;11108;49.988;8.182;2023-05-16T03:35:02;5.73;;;5.23;;
21886;SDS011;11108;49.988;8.182;2023-05-16T03:37:27;6.07;;;5.50;;
21886;SDS011;11108;49.988;8.182;2023-05-16T03:39:53;5.87;;;5.40;;
21886;SDS011;11108;49.988;8.182;2023-05-16T03:42:18;5.60;;;5.20;;
21886;SDS011;11108;49.988;8.182;2023-05-16T03:44:44;5.63;;;5.13;;
21886;SDS011;11108;49.988;8.182;2023-05-16T03:47:10;5.07;;;4.77;;
21886;SDS011;11108;49.988;8.182;2023-05-16T03:49:35;5.50;;;5.10;;
21886;SDS011;11108;49.988;8.182;2023-05-16T03:52:03;4.83;;;4.50;;
21886;SDS011;11108;49.988;8.182;2023-05-16T03:54:29;5.30;;;4.87;;
21886;SDS011;11108;49.988;8.182;2023-05-16T03:56:54;4.93;;;4.53;;
21886;SDS011;11108;49.988;8.182;2023-05-16T03:59:19;5.00;;;4.60;;
21886;SDS011;11108;49.988;8.182;2023-05-16T04:01:45;4.93;;;4.60;;
21886;SDS011;11108;49.988;8.182;2023-05-16T04:04:10;5.27;;;4.77;;
21886;SDS011;11108;49.988;8.182;2023-05-16T04:06:36;5.00;;;4.70;;
21886;SDS011;11108;49.988;8.182;2023-05-16T04:09:01;4.70;;;4.30;;
21886;SDS011;11108;49.988;8.182;2023-05-16T04:11:26;4.83;;;4.47;;
21886;SDS011;11108;49.988;8.182;2023-05-16T04:13:51;5.37;;;4.87;;
21886;SDS011;11108;49.988;8.182;2023-05-16T04:16:18;4.77;;;4.37;;
21886;SDS011;11108;49.988;8.182;2023-05-16T04:18:43;4.80;;;4.40;;
21886;SDS011;11108;49.988;8.182;2023-05-16T04:21:08;4.60;;;4.30;;
21886;SDS011;11108;49.988;8.182;2023-05-16T04:23:35;3.80;;;3.50;;
21886;SDS011;11108;49.988;8.182;2023-05-16T04:26:00;4.20;;;3.90;;
21886;SDS011;11108;49.988;8.182;2023-05-16T04:28:25;4.13;;;3.83;;
21886;SDS011;11108;49.988;8.182;2023-05-16T04:30:51;4.13;;;3.83;;
21886;SDS011;11108;49.988;8.182;2023-05-16T04:33:16;3.30;;;3.10;;
21886;SDS011;11108;49.988;8.182;2023-05-16T04:35:42;3.90;;;3.60;;
21886;SDS011;11108;49.988;8.182;2023-05-16T04:38:08;4.13;;;3.83;;
21886;SDS011;11108;49.988;8.182;2023-05-16T04:40:33;3.80;;;3.60;;
21886;SDS011;11108;49.988;8.182;2023-05-16T04:42:59;3.70;;;3.50;;
21886;SDS011;11108;49.988;8.182;2023-05-16T04:45:24;3.43;;;3.13;;
21886;SDS011;11108;49.988;8.182;2023-05-16T04:47:49;3.67;;;3.47;;
21886;SDS011;11108;49.988;8.182;2023-05-16T04:50:15;3.40;;;3.20;;
21886;SDS011;11108;49.988;8.182;2023-05-16T04:52:42;3.30;;;3.10;;
21886;SDS011;11108;49.988;8.182;2023-05-16T04:55:07;3.50;;;3.30;;
21886;SDS011;11108;49.988;8.182;2023-05-16T04:57:32;3.10;;;2.90;;
21886;SDS011;11108;49.988;8.182;2023-05-16T04:59:57;2.97;;;2.80;;
21886;SDS011;11108;49.988;8.182;2023-05-16T05:02:23;3.37;;;3.17;;
21886;SDS011;11108;49.988;8.182;2023-05-16T05:04:48;2.80;;;2.70;;
21886;SDS011;11108;49.988;8.182;2023-05-16T05:07:14;2.77;;;2.67;;
21886;SDS011;11108;49.988;8.182;2023-05-16T05:09:39;2.80;;;2.63;;
21886;SDS011;11108;49.988;8.182;2023-05-16T05:12:06;2.87;;;2.70;;
21886;SDS011;11108;49.988;8.182;2023-05-16T05:14:32;2.97;;;2.77;;
21886;SDS011;11108;49.988;8.182;2023-05-16T05:16:57;2.53;;;2.43;;
21886;SDS011;11108;49.988;8.182;2023-05-16T05:19:23;2.83;;;2.73;;
21886;SDS011;11108;49.988;8.182;2023-05-16T05:21:48;2.43;;;2.33;;
21886;SDS011;11108;49.988;8.182;2023-05-16T05:24:13;2.40;;;2.30;;
21886;SDS011;11108;49.988;8.182;2023-05-16T05:26:38;2.70;;;2.50;;
21886;SDS011;11108;49.988;8.182;2023-05-16T05:29:03;2.00;;;1.90;;
21886;SDS011;11108;49.988;8.182;2023-05-16T05:31:29;2.40;;;2.30;;
21886;SDS011;11108;49.988;8.182;2023-05-16T05:33:54;2.90;;;2.70;;
21886;SDS011;11108;49.988;8.182;2023-05-16T05:36:20;2.40;;;2.30;;
21886;SDS011;11108;49.988;8.182;2023-05-16T05:38:46;2.30;;;2.20;;
21886;SDS011;11108;49.988;8.182;2023-05-16T05:41:11;2.37;;;2.10;;
21886;SDS011;11108;49.988;8.182;2023-05-16T05:43:36;2.63;;;2.53;;
21886;SDS011;11108;49.988;8.182;2023-05-16T05:46:01;3.20;;;2.23;;
21886;SDS011;11108;49.988;8.182;2023-05-16T05:48:27;2.30;;;2.20;;
21886;SDS011;11108;49.988;8.182;2023-05-16T05:50:53;2.67;;;2.47;;
21886;SDS011;11108;49.988;8.182;2023-05-16T05:53:19;2.47;;;2.27;;
21886;SDS011;11108;49.988;8.182;2023-05-16T05:55:44;12.37;;;3.07;;
21886;SDS011;11108;49.988;8.182;2023-05-16T05:58:09;2.30;;;2.20;;
21886;SDS011;11108;49.988;8.182;2023-05-16T06:00:34;2.00;;;1.90;;
21886;SDS011;11108;49.988;8.182;2023-05-16T06:03:00;2.43;;;2.30;;
21886;SDS011;11108;49.988;8.182;2023-05-16T06:05:25;2.70;;;2.30;;
21886;SDS011;11108;49.988;8.182;2023-05-16T06:07:50;2.03;;;1.90;;
21886;SDS011;11108;49.988;8.182;2023-05-16T06:10:15;2.90;;;2.10;;
21886;SDS011;11108;49.988;8.182;2023-05-16T06:12:41;2.10;;;2.00;;
21886;SDS011;11108;49.988;8.182;2023-05-16T06:15:06;2.07;;;1.97;;
21886;SDS011;11108;49.988;8.182;2023-05-16T06:17:32;1.90;;;1.80;;
21886;SDS011;11108;49.988;8.182;2023-05-16T06:19:57;1.90;;;1.80;;
21886;SDS011;11108;49.988;8.182;2023-05-16T06:22:22;1.70;;;1.63;;
21886;SDS011;11108;49.988;8.182;2023-05-16T06:24:47;1.90;;;1.80;;
21886;SDS011;11108;49.988;8.182;2023-05-16T06:27:13;3.57;;;1.63;;
21886;SDS011;11108;49.988;8.182;2023-05-16T06:29:38;1.87;;;1.77;;
21886;SDS011;11108;49.988;8.182;2023-05-16T06:32:03;1.93;;;1.83;;
21886;SDS011;11108;49.988;8.182;2023-05-16T06:34:28;2.23;;;2.07;;
21886;SDS011;11108;49.988;8.182;2023-05-16T06:36:54;1.83;;;1.73;;
21886;SDS011;11108;49.988;8.182;2023-05-16T06:39:20;1.90;;;1.80;;
21886;SDS011;11108;49.988;8.182;2023-05-16T06:41:45;1.67;;;1.57;;
21886;SDS011;11108;49.988;8.182;2023-05-16T06:44:10;1.53;;;1.53;;
21886;SDS011;11108;49.988;8.182;2023-05-16T06:46:35;1.90;;;1.80;;
21886;SDS011;11108;49.988;8.182;2023-05-16T06:49:02;2.40;;;1.70;;
21886;SDS011;11108;49.988;8.182;2023-05-16T06:51:27;2.33;;;1.73;;
21886;SDS011;11108;49.988;8.182;2023-05-16T06:53:52;2.10;;;1.80;;
21886;SDS011;11108;49.988;8.182;2023-05-16T06:56:17;1.40;;;1.30;;
21886;SDS011;11108;49.988;8.182;2023-05-16T06:58:43;2.17;;;1.97;;
21886;SDS011;11108;49.988;8.182;2023-05-16T07:01:08;1.47;;;1.37;;
21886;SDS011;11108;49.988;8.182;2023-05-16T07:03:33;1.87;;;1.77;;
21886;SDS011;11108;49.988;8.182;2023-05-16T07:05:59;2.20;;;1.47;;
21886;SDS011;11108;49.988;8.182;2023-05-16T07:08:24;1.40;;;1.30;;
21886;SDS011;11108;49.988;8.182;2023-05-16T07:10:50;1.70;;;1.60;;
21886;SDS011;11108;49.988;8.182;2023-05-16T07:13:15;1.70;;;1.60;;
21886;SDS011;11108;49.988;8.182;2023-05-16T07:15:40;2.23;;;1.60;;
21886;SDS011;11108;49.988;8.182;2023-05-16T07:18:05;1.70;;;1.50;;
21886;SDS011;11108;49.988;8.182;2023-05-16T07:20:30;1.80;;;1.70;;
21886;SDS011;11108;49.988;8.182;2023-05-16T07:22:56;1.40;;;1.30;;
21886;SDS011;11108;49.988;8.182;2023-05-16T07:25:22;1.53;;;1.33;;
21886;SDS011;11108;49.988;8.182;2023-05-16T07:27:47;1.40;;;1.30;;
21886;SDS011;11108;49.988;8.182;2023-05-16T07:30:12;2.00;;;1.90;;
21886;SDS011;11108;49.988;8.182;2023-05-16T07:32:38;1.50;;;1.40;;
21886;SDS011;11108;49.988;8.182;2023-05-16T07:35:03;2.20;;;1.30;;
21886;SDS011;11108;49.988;8.182;2023-05-16T07:37:29;2.20;;;1.30;;
21886;SDS011;11108;49.988;8.182;2023-05-16T07:39:54;1.67;;;1.57;;
21886;SDS011;11108;49.988;8.182;2023-05-16T07:42:19;1.50;;;1.27;;
21886;SDS011;11108;49.988;8.182;2023-05-16T07:44:45;1.53;;;1.37;;
21886;SDS011;11108;49.988;8.182;2023-05-16T07:47:10;2.30;;;1.17;;
21886;SDS011;11108;49.988;8.182;2023-05-16T07:49:35;1.37;;;1.37;;
21886;SDS011;11108;49.988;8.182;2023-05-16T07:52:01;1.57;;;1.47;;
21886;SDS011;11108;49.988;8.182;2023-05-16T07:54:26;2.33;;;1.50;;
21886;SDS011;11108;49.988;8.182;2023-05-16T07:56:51;1.70;;;1.40;;
21886;SDS011;11108;49.988;8.182;2023-05-16T07:59:16;2.07;;;1.20;;
21886;SDS011;11108;49.988;8.182;2023-05-16T08:01:44;1.50;;;1.40;;
21886;SDS011;11108;49.988;8.182;2023-05-16T08:04:10;2.40;;;1.30;;
21886;SDS011;11108;49.988;8.182;2023-05-16T08:06:35;1.87;;;1.27;;
21886;SDS011;11108;49.988;8.182;2023-05-16T08:09:01;1.43;;;1.33;;
21886;SDS011;11108;49.988;8.182;2023-05-16T08:11:26;3.03;;;1.20;;
21886;SDS011;11108;49.988;8.182;2023-05-16T08:13:51;1.50;;;1.20;;
21886;SDS011;11108;49.988;8.182;2023-05-16T08:16:17;1.40;;;1.30;;
21886;SDS011;11108;49.988;8.182;2023-05-16T08:18:42;1.70;;;1.40;;
21886;SDS011;11108;49.988;8.182;2023-05-16T08:21:07;2.73;;;1.20;;
21886;SDS011;11108;49.988;8.182;2023-05-16T08:23:33;1.37;;;1.27;;
21886;SDS011;11108;49.988;8.182;2023-05-16T08:25:58;3.40;;;1.60;;
21886;SDS011;11108;49.988;8.182;2023-05-16T08:28:23;1.07;;;1.07;;
21886;SDS011;11108;49.988;8.182;2023-05-16T08:30:49;1.30;;;1.20;;
21886;SDS011;11108;49.988;8.182;2023-05-16T08:33:14;3.10;;;1.30;;
21886;SDS011;11108;49.988;8.182;2023-05-16T08:35:43;1.13;;;1.10;;
21886;SDS011;11108;49.988;8.182;2023-05-16T08:38:08;1.30;;;1.30;;
21886;SDS011;11108;49.988;8.182;2023-05-16T08:40:33;1.53;;;1.43;;
21886;SDS011;11108;49.988;8.182;2023-05-16T08:42:59;1.30;;;1.00;;
21886;SDS011;11108;49.988;8.182;2023-05-16T08:45:24;3.20;;;1.20;;
21886;SDS011;11108;49.988;8.182;2023-05-16T08:47:49;1.30;;;1.20;;
21886;SDS011;11108;49.988;8.182;2023-05-16T08:50:18;3.37;;;1.40;;
21886;SDS011;11108;49.988;8.182;2023-05-16T08:52:43;1.13;;;1.13;;
21886;SDS011;11108;49.988;8.182;2023-05-16T08:55:11;1.10;;;1.10;;
21886;SDS011;11108;49.988;8.182;2023-05-16T08:57:37;9.10;;;1.30;;
21886;SDS011;11108;49.988;8.182;2023-05-16T09:00:05;1.00;;;1.00;;
21886;SDS011;11108;49.988;8.182;2023-05-16T09:02:35;1.63;;;1.23;;
21886;SDS011;11108;49.988;8.182;2023-05-16T09:05:01;1.53;;;1.10;;
21886;SDS011;11108;49.988;8.182;2023-05-16T09:07:27;2.80;;;1.00;;
21886;SDS011;11108;49.988;8.182;2023-05-16T09:09:53;1.10;;;1.10;;
21886;SDS011;11108;49.988;8.182;2023-05-16T09:12:18;1.23;;;1.10;;
21886;SDS011;11108;49.988;8.182;2023-05-16T09:14:44;0.87;;;0.87;;
21886;SDS011;11108;49.988;8.182;2023-05-16T09:17:09;1.23;;;1.13;;
21886;SDS011;11108;49.988;8.182;2023-05-16T09:19:38;1.03;;;1.03;;
21886;SDS011;11108;49.988;8.182;2023-05-16T09:22:05;1.30;;;1.23;;
21886;SDS011;11108;49.988;8.182;2023-05-16T09:24:30;1.00;;;1.00;;
21886;SDS011;11108;49.988;8.182;2023-05-16T09:26:55;1.30;;;1.10;;
21886;SDS011;11108;49.988;8.182;2023-05-16T09:29:20;2.37;;;1.23;;
21886;SDS011;11108;49.988;8.182;2023-05-16T09:31:46;1.23;;;1.10;;
21886;SDS011;11108;49.988;8.182;2023-05-16T09:34:13;1.23;;;1.20;;
21886;SDS011;11108;49.988;8.182;2023-05-16T09:36:38;1.10;;;1.00;;
21886;SDS011;11108;49.988;8.182;2023-05-16T09:39:04;1.00;;;1.00;;
21886;SDS011;11108;49.988;8.182;2023-05-16T09:41:33;0.80;;;0.80;;
21886;SDS011;11108;49.988;8.182;2023-05-16T09:44:04;1.10;;;1.10;;
21886;SDS011;11108;49.988;8.182;2023-05-16T09:46:31;0.90;;;0.90;;
21886;SDS011;11108;49.988;8.182;2023-05-16T09:48:57;0.90;;;0.80;;
21886;SDS011;11108;49.988;8.182;2023-05-16T09:51:22;1.00;;;1.00;;
21886;SDS011;11108;49.988;8.182;2023-05-16T09:53:48;2.17;;;1.07;;
21886;SDS011;11108;49.988;8.182;2023-05-16T09:56:16;0.93;;;0.90;;
21886;SDS011;11108;49.988;8.182;2023-05-16T09:58:42;1.00;;;1.00;;
21886;SDS011;11108;49.988;8.182;2023-05-16T10:01:08;1.20;;;1.07;;
21886;SDS011;11108;49.988;8.182;2023-05-16T10:03:34;0.70;;;0.70;;
21886;SDS011;11108;49.988;8.182;2023-05-16T10:06:00;0.90;;;0.90;;
21886;SDS011;11108;49.988;8.182;2023-05-16T10:08:26;1.33;;;1.00;;
21886;SDS011;11108;49.988;8.182;2023-05-16T10:10:53;1.30;;;1.20;;
21886;SDS011;11108;49.988;8.182;2023-05-16T10:13:36;1.27;;;1.00;;
21886;SDS011;11108;49.988;8.182;2023-05-16T10:16:06;1.80;;;1.03;;
21886;SDS011;11108;49.988;8.182;2023-05-16T10:18:32;1.10;;;1.00;;
21886;SDS011;11108;49.988;8.182;2023-05-16T10:21:03;1.60;;;1.07;;
21886;SDS011;11108;49.988;8.182;2023-05-16T10:23:29;1.33;;;1.10;;
21886;SDS011;11108;49.988;8.182;2023-05-16T10:25:55;1.10;;;1.00;;
21886;SDS011;11108;49.988;8.182;2023-05-16T10:28:21;1.33;;;1.00;;
21886;SDS011;11108;49.988;8.182;2023-05-16T10:30:47;1.00;;;1.00;;
21886;SDS011;11108;49.988;8.182;2023-05-16T10:33:13;1.67;;;1.57;;
21886;SDS011;11108;49.988;8.182;2023-05-16T10:35:39;1.50;;;1.50;;
21886;SDS011;11108;49.988;8.182;2023-05-16T10:38:04;2.20;;;1.40;;
21886;SDS011;11108;49.988;8.182;2023-05-16T10:40:30;2.07;;;1.83;;
21886;SDS011;11108;49.988;8.182;2023-05-16T10:42:56;1.40;;;1.30;;
21886;SDS011;11108;49.988;8.182;2023-05-16T10:45:22;1.57;;;1.43;;
21886;SDS011;11108;49.988;8.182;2023-05-16T10:47:51;1.67;;;1.27;;
21886;SDS011;11108;49.988;8.182;2023-05-16T10:50:59;2.83;;;1.67;;
21886;SDS011;11108;49.988;8.182;2023-05-16T10:55:38;2.50;;;1.40;;
21886;SDS011;11108;49.988;8.182;2023-05-16T10:58:03;1.50;;;1.40;;
21886;SDS011;11108;49.988;8.182;2023-05-16T11:00:29;2.30;;;1.30;;
21886;SDS011;11108;49.988;8.182;2023-05-16T11:02:54;2.90;;;1.50;;
21886;SDS011;11108;49.988;8.182;2023-05-16T11:05:28;3.27;;;2.00;;
21886;SDS011;11108;49.988;8.182;2023-05-16T11:08:04;2.40;;;1.73;;
21886;SDS011;11108;49.988;8.182;2023-05-16T11:10:29;3.60;;;1.67;;
21886;SDS011;11108;49.988;8.182;2023-05-16T11:12:54;1.30;;;1.30;;
21886;SDS011;11108;49.988;8.182;2023-05-16T11:15:26;2.10;;;1.90;;
21886;SDS011;11108;49.988;8.182;2023-05-16T11:20:33;6.57;;;3.07;;
21886;SDS011;11108;49.988;8.182;2023-05-16T11:25:39;13.13;;;7.30;;
21886;SDS011;11108;49.988;8.182;2023-05-16T11:28:05;12.93;;;7.23;;
21886;SDS011;11108;49.988;8.182;2023-05-16T11:30:32;10.60;;;6.80;;
21886;SDS011;11108;49.988;8.182;2023-05-16T11:32:57;13.77;;;7.20;;
21886;SDS011;11108;49.988;8.182;2023-05-16T11:35:22;11.67;;;6.90;;
21886;SDS011;11108;49.988;8.182;2023-05-16T11:37:47;10.17;;;6.80;;
21886;SDS011;11108;49.988;8.182;2023-05-16T11:40:13;9.00;;;6.03;;
21886;SDS011;11108;49.988;8.182;2023-05-16T11:42:45;8.00;;;4.97;;
21886;SDS011;11108;49.988;8.182;2023-05-16T11:45:13;9.27;;;5.57;;
21886;SDS011;11108;49.988;8.182;2023-05-16T11:47:39;8.67;;;5.60;;
21886;SDS011;11108;49.988;8.182;2023-05-16T11:50:05;10.40;;;4.77;;
21886;SDS011;11108;49.988;8.182;2023-05-16T11:52:31;9.03;;;4.70;;
21886;SDS011;11108;49.988;8.182;2023-05-16T11:54:57;7.77;;;4.30;;
21886;SDS011;11108;49.988;8.182;2023-05-16T11:57:25;5.67;;;4.00;;
21886;SDS011;11108;49.988;8.182;2023-05-16T11:59:51;6.13;;;4.60;;
21886;SDS011;11108;49.988;8.182;2023-05-16T12:02:16;5.37;;;4.13;;
21886;SDS011;11108;49.988;8.182;2023-05-16T12:04:44;7.10;;;3.70;;
21886;SDS011;11108;49.988;8.182;2023-05-16T12:07:10;4.40;;;3.13;;
21886;SDS011;11108;49.988;8.182;2023-05-16T12:09:35;4.70;;;3.73;;
21886;SDS011;11108;49.988;8.182;2023-05-16T12:12:02;6.33;;;3.40;;
21886;SDS011;11108;49.988;8.182;2023-05-16T12:14:28;5.17;;;3.33;;
21886;SDS011;11108;49.988;8.182;2023-05-16T12:16:54;4.17;;;3.03;;
21886;SDS011;11108;49.988;8.182;2023-05-16T12:19:19;8.17;;;3.27;;
21886;SDS011;11108;49.988;8.182;2023-05-16T12:21:45;4.27;;;3.00;;
21886;SDS011;11108;49.988;8.182;2023-05-16T12:24:10;5.37;;;3.00;;
21886;SDS011;11108;49.988;8.182;2023-05-16T12:26:37;4.27;;;2.90;;
21886;SDS011;11108;49.988;8.182;2023-05-16T12:29:03;3.87;;;2.80;;
21886;SDS011;11108;49.988;8.182;2023-05-16T12:31:29;3.33;;;2.40;;
21886;SDS011;11108;49.988;8.182;2023-05-16T12:33:55;4.77;;;2.70;;
21886;SDS011;11108;49.988;8.182;2023-05-16T12:36:21;4.30;;;2.90;;
21886;SDS011;11108;49.988;8.182;2023-05-16T12:38:46;4.60;;;2.57;;
21886;SDS011;11108;49.988;8.182;2023-05-16T12:41:16;3.17;;;2.27;;
21886;SDS011;11108;49.988;8.182;2023-05-16T12:43:41;4.10;;;2.50;;
21886;SDS011;11108;49.988;8.182;2023-05-16T12:46:08;3.00;;;2.30;;
21886;SDS011;11108;49.988;8.182;2023-05-16T12:48:34;3.20;;;2.60;;
21886;SDS011;11108;49.988;8.182;2023-05-16T12:51:12;3.60;;;2.40;;
21886;SDS011;11108;49.988;8.182;2023-05-16T12:53:45;4.50;;;2.40;;
21886;SDS011;11108;49.988;8.182;2023-05-16T12:56:11;2.50;;;1.93;;
21886;SDS011;11108;49.988;8.182;2023-05-16T12:58:37;3.37;;;2.10;;
21886;SDS011;11108;49.988;8.182;2023-05-16T13:01:02;3.07;;;2.30;;
21886;SDS011;11108;49.988;8.182;2023-05-16T13:03:27;4.97;;;2.57;;
21886;SDS011;11108;49.988;8.182;2023-05-16T13:05:53;2.83;;;2.10;;
21886;SDS011;11108;49.988;8.182;2023-05-16T13:08:18;4.40;;;2.37;;
21886;SDS011;11108;49.988;8.182;2023-05-16T13:10:44;3.43;;;2.10;;
21886;SDS011;11108;49.988;8.182;2023-05-16T13:13:09;3.93;;;2.23;;
21886;SDS011;11108;49.988;8.182;2023-05-16T13:15:34;3.53;;;2.30;;
21886;SDS011;11108;49.988;8.182;2023-05-16T13:18:00;4.50;;;2.30;;
21886;SDS011;11108;49.988;8.182;2023-05-16T13:20:25;3.37;;;2.03;;
21886;SDS011;11108;49.988;8.182;2023-05-16T13:22:50;2.90;;;1.93;;
21886;SDS011;11108;49.988;8.182;2023-05-16T13:25:16;2.53;;;1.67;;
21886;SDS011;11108;49.988;8.182;2023-05-16T13:27:41;3.67;;;2.00;;
21886;SDS011;11108;49.988;8.182;2023-05-16T13:30:07;3.77;;;1.60;;
21886;SDS011;11108;49.988;8.182;2023-05-16T13:32:32;3.30;;;1.63;;
21886;SDS011;11108;49.988;8.182;2023-05-16T13:34:57;3.47;;;1.93;;
21886;SDS011;11108;49.988;8.182;2023-05-16T13:37:23;2.87;;;1.77;;
21886;SDS011;11108;49.988;8.182;2023-05-16T13:39:48;3.07;;;1.80;;
21886;SDS011;11108;49.988;8.182;2023-05-16T13:42:13;5.00;;;1.80;;
21886;SDS011;11108;49.988;8.182;2023-05-16T13:44:39;3.07;;;1.80;;
21886;SDS011;11108;49.988;8.182;2023-05-16T13:47:04;2.90;;;1.90;;
21886;SDS011;11108;49.988;8.182;2023-05-16T13:49:29;2.00;;;1.77;;
21886;SDS011;11108;49.988;8.182;2023-05-16T13:51:54;1.60;;;1.50;;
21886;SDS011;11108;49.988;8.182;2023-05-16T13:54:21;2.27;;;1.60;;
21886;SDS011;11108;49.988;8.182;2023-05-16T13:56:46;3.43;;;1.47;;
21886;SDS011;11108;49.988;8.182;2023-05-16T13:59:12;2.63;;;1.53;;
21886;SDS011;11108;49.988;8.182;2023-05-16T14:01:37;1.33;;;1.20;;
21886;SDS011;11108;49.988;8.182;2023-05-16T14:04:02;2.20;;;1.73;;
21886;SDS011;11108;49.988;8.182;2023-05-16T14:06:27;2.40;;;1.53;;
21886;SDS011;11108;49.988;8.182;2023-05-16T14:08:53;1.70;;;1.30;;
21886;SDS011;11108;49.988;8.182;2023-05-16T14:11:18;2.27;;;1.30;;
21886;SDS011;11108;49.988;8.182;2023-05-16T14:13:44;1.87;;;1.70;;
21886;SDS011;11108;49.988;8.182;2023-05-16T14:16:09;3.43;;;1.40;;
21886;SDS011;11108;49.988;8.182;2023-05-16T14:18:34;1.63;;;1.30;;
21886;SDS011;11108;49.988;8.182;2023-05-16T14:21:00;2.20;;;1.33;;
21886;SDS011;11108;49.988;8.182;2023-05-16T14:23:25;4.10;;;1.50;;
21886;SDS011;11108;49.988;8.182;2023-05-16T14:25:50;2.33;;;1.20;;
21886;SDS011;11108;49.988;8.182;2023-05-16T14:28:16;2.53;;;1.40;;
21886;SDS011;11108;49.988;8.182;2023-05-16T14:30:41;1.83;;;1.20;;
21886;SDS011;11108;49.988;8.182;2023-05-16T14:33:06;1.23;;;1.00;;
21886;SDS011;11108;49.988;8.182;2023-05-16T14:35:32;3.17;;;1.60;;
21886;SDS011;11108;49.988;8.182;2023-05-16T14:37:57;1.53;;;1.43;;
21886;SDS011;11108;49.988;8.182;2023-05-16T14:40:22;1.33;;;1.23;;
21886;SDS011;11108;49.988;8.182;2023-05-16T14:42:49;2.33;;;1.40;;
21886;SDS011;11108;49.988;8.182;2023-05-16T14:45:15;1.40;;;1.30;;
21886;SDS011;11108;49.988;8.182;2023-05-16T14:47:40;2.20;;;1.30;;
21886;SDS011;11108;49.988;8.182;2023-05-16T14:50:06;1.27;;;1.17;;
21886;SDS011;11108;49.988;8.182;2023-05-16T14:52:31;1.30;;;0.83;;
21886;SDS011;11108;49.988;8.182;2023-05-16T14:54:56;1.80;;;1.40;;
21886;SDS011;11108;49.988;8.182;2023-05-16T14:57:22;2.07;;;1.20;;